sensor_id;sensor_type;location;lat;lon;timestamp;temperature;humidity
921;DHT22;447;51.332;6.778;2022-12-18T00:01:21;0.20;97.40
921;DHT22;447;51.332;6.778;2022-12-18T00:03:48;0.10;97.50
921;DHT22;447;51.332;6.778;2022-12-18T00:06:15;0.10;97.60
921;DHT22;447;51.332;6.778;2022-12-18T00:08:42;0.10;97.70
921;DHT22;447;51.332;6.778;2022-12-18T00:11:11;0.10;97.70
921;DHT22;447;51.332;6.778;2022-12-18T00:13:38;0.10;97.70
921;DHT22;447;51.332;6.778;2022-12-18T00:16:07;0.10;97.80
921;DHT22;447;51.332;6.778;2022-12-18T00:18:39;0.10;97.80
921;DHT22;447;51.332;6.778;2022-12-18T00:21:07;0.10;97.90
921;DHT22;447;51.332;6.778;2022-12-18T00:23:35;0.00;97.90
921;DHT22;447;51.332;6.778;2022-12-18T00:26:10;0.00;98.00
921;DHT22;447;51.332;6.778;2022-12-18T00:28:36;0.00;98.00
921;DHT22;447;51.332;6.778;2022-12-18T00:31:08;0.00;98.10
921;DHT22;447;51.332;6.778;2022-12-18T00:33:38;0.00;98.20
921;DHT22;447;51.332;6.778;2022-12-18T00:36:07;0.00;98.20
921;DHT22;447;51.332;6.778;2022-12-18T00:38:36;0.00;98.20
921;DHT22;447;51.332;6.778;2022-12-18T00:41:03;0.00;98.20
921;DHT22;447;51.332;6.778;2022-12-18T00:43:30;0.00;98.20
921;DHT22;447;51.332;6.778;2022-12-18T00:45:56;0.00;98.20
921;DHT22;447;51.332;6.778;2022-12-18T00:48:22;0.00;98.10
921;DHT22;447;51.332;6.778;2022-12-18T00:50:51;0.00;98.10
921;DHT22;447;51.332;6.778;2022-12-18T00:53:17;-0.10;98.00
921;DHT22;447;51.332;6.778;2022-12-18T00:55:44;0.00;98.00
921;DHT22;447;51.332;6.778;2022-12-18T00:58:16;0.00;98.10
921;DHT22;447;51.332;6.778;2022-12-18T01:00:43;-0.10;98.10
921;DHT22;447;51.332;6.778;2022-12-18T01:03:13;-0.10;98.00
921;DHT22;447;51.332;6.778;2022-12-18T01:05:40;-0.10;98.20
921;DHT22;447;51.332;6.778;2022-12-18T01:08:11;-0.10;98.10
921;DHT22;447;51.332;6.778;2022-12-18T01:10:45;-0.10;98.10
921;DHT22;447;51.332;6.778;2022-12-18T01:13:13;-0.10;98.20
921;DHT22;447;51.332;6.778;2022-12-18T01:15:50;0.00;98.20
921;DHT22;447;51.332;6.778;2022-12-18T01:18:18;-0.10;98.10
921;DHT22;447;51.332;6.778;2022-12-18T01:20:46;-0.10;98.20
921;DHT22;447;51.332;6.778;2022-12-18T01:23:12;-0.10;98.20
921;DHT22;447;51.332;6.778;2022-12-18T01:25:41;-0.10;98.20
921;DHT22;447;51.332;6.778;2022-12-18T01:28:09;-0.10;98.20
921;DHT22;447;51.332;6.778;2022-12-18T01:30:35;-0.10;98.20
921;DHT22;447;51.332;6.778;2022-12-18T01:33:01;-0.10;98.20
921;DHT22;447;51.332;6.778;2022-12-18T01:35:42;-0.10;98.20
921;DHT22;447;51.332;6.778;2022-12-18T01:38:11;-0.10;98.10
921;DHT22;447;51.332;6.778;2022-12-18T01:40:40;-0.10;98.10
921;DHT22;447;51.332;6.778;2022-12-18T01:43:09;-0.10;98.10
921;DHT22;447;51.332;6.778;2022-12-18T01:45:35;-0.10;98.10
921;DHT22;447;51.332;6.778;2022-12-18T01:48:05;-0.10;98.10
921;DHT22;447;51.332;6.778;2022-12-18T01:50:42;-0.10;97.90
921;DHT22;447;51.332;6.778;2022-12-18T01:53:19;-0.10;98.00
921;DHT22;447;51.332;6.778;2022-12-18T01:58:19;-0.10;98.00
921;DHT22;447;51.332;6.778;2022-12-18T02:00:51;-0.10;98.10
921;DHT22;447;51.332;6.778;2022-12-18T02:03:19;-0.10;98.00
921;DHT22;447;51.332;6.778;2022-12-18T02:06:01;-0.10;98.00
921;DHT22;447;51.332;6.778;2022-12-18T02:14:29;-0.10;98.00
921;DHT22;447;51.332;6.778;2022-12-18T02:17:20;-0.10;98.10
921;DHT22;447;51.332;6.778;2022-12-18T02:28:13;-0.10;98.10
921;DHT22;447;51.332;6.778;2022-12-18T02:30:47;-0.10;98.00
921;DHT22;447;51.332;6.778;2022-12-18T02:33:14;-0.20;98.00
921;DHT22;447;51.332;6.778;2022-12-18T02:35:44;-0.10;98.10
921;DHT22;447;51.332;6.778;2022-12-18T02:38:16;-0.10;98.20
921;DHT22;447;51.332;6.778;2022-12-18T02:40:46;-0.10;98.20
921;DHT22;447;51.332;6.778;2022-12-18T02:43:18;-0.10;98.20
921;DHT22;447;51.332;6.778;2022-12-18T02:45:54;-0.20;98.10
921;DHT22;447;51.332;6.778;2022-12-18T02:48:33;-0.20;98.10
921;DHT22;447;51.332;6.778;2022-12-18T02:54:00;-0.10;98.30
921;DHT22;447;51.332;6.778;2022-12-18T02:56:46;-0.10;98.30
921;DHT22;447;51.332;6.778;2022-12-18T02:59:45;-0.20;98.30
921;DHT22;447;51.332;6.778;2022-12-18T03:07:43;-0.20;98.30
921;DHT22;447;51.332;6.778;2022-12-18T03:10:33;-0.20;98.30
921;DHT22;447;51.332;6.778;2022-12-18T03:13:13;-0.20;98.30
921;DHT22;447;51.332;6.778;2022-12-18T03:15:47;-0.20;98.30
921;DHT22;447;51.332;6.778;2022-12-18T03:18:23;-0.20;98.30
921;DHT22;447;51.332;6.778;2022-12-18T03:20:58;-0.20;98.30
921;DHT22;447;51.332;6.778;2022-12-18T03:23:30;-0.20;98.30
921;DHT22;447;51.332;6.778;2022-12-18T03:26:01;-0.20;98.40
921;DHT22;447;51.332;6.778;2022-12-18T03:28:30;-0.20;98.70
921;DHT22;447;51.332;6.778;2022-12-18T03:31:05;-0.20;98.40
921;DHT22;447;51.332;6.778;2022-12-18T03:33:53;-0.20;98.50
921;DHT22;447;51.332;6.778;2022-12-18T03:36:34;-0.20;98.40
921;DHT22;447;51.332;6.778;2022-12-18T03:39:00;-0.20;98.40
921;DHT22;447;51.332;6.778;2022-12-18T03:41:35;-0.20;98.40
921;DHT22;447;51.332;6.778;2022-12-18T03:44:20;-0.20;98.50
921;DHT22;447;51.332;6.778;2022-12-18T03:49:46;-0.20;98.40
921;DHT22;447;51.332;6.778;2022-12-18T03:52:21;-0.20;98.40
921;DHT22;447;51.332;6.778;2022-12-18T03:54:49;-0.30;98.40
921;DHT22;447;51.332;6.778;2022-12-18T03:57:20;-0.30;98.50
921;DHT22;447;51.332;6.778;2022-12-18T03:59:56;-0.20;98.60
921;DHT22;447;51.332;6.778;2022-12-18T04:02:27;-0.20;98.70
921;DHT22;447;51.332;6.778;2022-12-18T04:05:01;-0.20;98.60
921;DHT22;447;51.332;6.778;2022-12-18T04:07:31;-0.20;98.70
921;DHT22;447;51.332;6.778;2022-12-18T04:09:58;-0.20;98.70
921;DHT22;447;51.332;6.778;2022-12-18T04:12:30;-0.20;98.70
921;DHT22;447;51.332;6.778;2022-12-18T04:14:57;-0.30;98.60
921;DHT22;447;51.332;6.778;2022-12-18T04:17:25;-0.30;98.70
921;DHT22;447;51.332;6.778;2022-12-18T04:19:54;-0.30;98.60
921;DHT22;447;51.332;6.778;2022-12-18T04:22:24;-0.20;99.00
921;DHT22;447;51.332;6.778;2022-12-18T04:24:58;-0.20;98.70
921;DHT22;447;51.332;6.778;2022-12-18T04:27:33;-0.20;99.00
921;DHT22;447;51.332;6.778;2022-12-18T04:30:01;-0.20;98.70
921;DHT22;447;51.332;6.778;2022-12-18T04:32:27;-0.20;98.70
921;DHT22;447;51.332;6.778;2022-12-18T04:34:55;-0.20;98.80
921;DHT22;447;51.332;6.778;2022-12-18T04:37:22;-0.20;98.70
921;DHT22;447;51.332;6.778;2022-12-18T04:39:49;-0.20;98.70
921;DHT22;447;51.332;6.778;2022-12-18T04:42:23;-0.20;98.60
921;DHT22;447;51.332;6.778;2022-12-18T04:44:49;-0.20;98.60
921;DHT22;447;51.332;6.778;2022-12-18T04:47:17;-0.20;98.60
921;DHT22;447;51.332;6.778;2022-12-18T04:49:46;-0.20;98.60
921;DHT22;447;51.332;6.778;2022-12-18T04:52:16;-0.30;98.50
921;DHT22;447;51.332;6.778;2022-12-18T04:54:45;-0.30;98.70
921;DHT22;447;51.332;6.778;2022-12-18T04:57:13;-0.20;98.70
921;DHT22;447;51.332;6.778;2022-12-18T04:59:44;-0.30;98.60
921;DHT22;447;51.332;6.778;2022-12-18T05:02:11;-0.30;98.60
921;DHT22;447;51.332;6.778;2022-12-18T05:04:37;-0.30;98.60
921;DHT22;447;51.332;6.778;2022-12-18T05:07:03;-0.30;98.60
921;DHT22;447;51.332;6.778;2022-12-18T05:09:33;-0.30;98.60
921;DHT22;447;51.332;6.778;2022-12-18T05:12:04;-0.30;98.60
921;DHT22;447;51.332;6.778;2022-12-18T05:14:30;-0.30;98.70
921;DHT22;447;51.332;6.778;2022-12-18T05:16:55;-0.30;98.60
921;DHT22;447;51.332;6.778;2022-12-18T05:19:22;-0.30;98.60
921;DHT22;447;51.332;6.778;2022-12-18T05:21:51;-0.30;98.60
921;DHT22;447;51.332;6.778;2022-12-18T05:24:17;-0.30;98.70
921;DHT22;447;51.332;6.778;2022-12-18T05:26:47;-0.30;98.60
921;DHT22;447;51.332;6.778;2022-12-18T05:29:12;-0.30;98.60
921;DHT22;447;51.332;6.778;2022-12-18T05:31:42;-0.30;98.60
921;DHT22;447;51.332;6.778;2022-12-18T05:34:08;-0.30;98.60
921;DHT22;447;51.332;6.778;2022-12-18T05:36:34;-0.30;98.60
921;DHT22;447;51.332;6.778;2022-12-18T05:39:03;-0.30;98.70
921;DHT22;447;51.332;6.778;2022-12-18T05:41:29;-0.30;98.70
921;DHT22;447;51.332;6.778;2022-12-18T05:43:55;-0.30;98.80
921;DHT22;447;51.332;6.778;2022-12-18T05:46:23;-0.30;98.80
921;DHT22;447;51.332;6.778;2022-12-18T05:48:52;-0.30;98.70
921;DHT22;447;51.332;6.778;2022-12-18T05:51:20;-0.30;98.80
921;DHT22;447;51.332;6.778;2022-12-18T05:53:51;-0.30;98.80
921;DHT22;447;51.332;6.778;2022-12-18T05:56:19;-0.30;98.90
921;DHT22;447;51.332;6.778;2022-12-18T05:58:46;-0.30;98.80
921;DHT22;447;51.332;6.778;2022-12-18T06:01:18;-0.30;98.80
921;DHT22;447;51.332;6.778;2022-12-18T06:03:49;-0.30;98.80
921;DHT22;447;51.332;6.778;2022-12-18T06:06:27;-0.30;98.90
921;DHT22;447;51.332;6.778;2022-12-18T06:08:55;-0.20;98.90
921;DHT22;447;51.332;6.778;2022-12-18T06:11:28;-0.20;98.90
921;DHT22;447;51.332;6.778;2022-12-18T06:13:59;-0.20;98.90
921;DHT22;447;51.332;6.778;2022-12-18T06:16:26;-0.20;98.80
921;DHT22;447;51.332;6.778;2022-12-18T06:18:59;-0.20;98.80
921;DHT22;447;51.332;6.778;2022-12-18T06:21:28;-0.20;98.80
921;DHT22;447;51.332;6.778;2022-12-18T06:23:54;-0.20;98.80
921;DHT22;447;51.332;6.778;2022-12-18T06:26:22;-0.20;98.80
921;DHT22;447;51.332;6.778;2022-12-18T06:28:51;-0.20;98.80
921;DHT22;447;51.332;6.778;2022-12-18T06:31:17;-0.20;98.70
921;DHT22;447;51.332;6.778;2022-12-18T06:33:43;-0.20;98.70
921;DHT22;447;51.332;6.778;2022-12-18T06:36:13;-0.20;98.70
921;DHT22;447;51.332;6.778;2022-12-18T06:38:41;-0.20;98.70
921;DHT22;447;51.332;6.778;2022-12-18T06:41:13;-0.20;98.80
921;DHT22;447;51.332;6.778;2022-12-18T06:43:39;-0.20;98.80
921;DHT22;447;51.332;6.778;2022-12-18T06:46:08;-0.20;98.70
921;DHT22;447;51.332;6.778;2022-12-18T06:48:39;-0.20;98.70
921;DHT22;447;51.332;6.778;2022-12-18T06:51:08;-0.20;98.70
921;DHT22;447;51.332;6.778;2022-12-18T06:53:38;-0.20;98.70
921;DHT22;447;51.332;6.778;2022-12-18T06:56:08;-0.20;98.70
921;DHT22;447;51.332;6.778;2022-12-18T06:58:34;-0.20;98.60
921;DHT22;447;51.332;6.778;2022-12-18T07:01:11;-0.20;98.70
921;DHT22;447;51.332;6.778;2022-12-18T07:03:40;-0.20;98.50
921;DHT22;447;51.332;6.778;2022-12-18T07:06:12;-0.20;98.60
921;DHT22;447;51.332;6.778;2022-12-18T07:08:38;-0.30;98.50
921;DHT22;447;51.332;6.778;2022-12-18T07:11:04;-0.30;98.60
921;DHT22;447;51.332;6.778;2022-12-18T07:13:33;-0.30;98.70
921;DHT22;447;51.332;6.778;2022-12-18T07:16:10;-0.30;98.60
921;DHT22;447;51.332;6.778;2022-12-18T07:18:39;-0.30;98.60
921;DHT22;447;51.332;6.778;2022-12-18T07:21:13;-0.30;98.60
921;DHT22;447;51.332;6.778;2022-12-18T07:23:41;-0.30;98.70
921;DHT22;447;51.332;6.778;2022-12-18T07:26:09;-0.30;98.60
921;DHT22;447;51.332;6.778;2022-12-18T07:28:37;-0.30;98.50
921;DHT22;447;51.332;6.778;2022-12-18T07:31:08;-0.30;98.50
921;DHT22;447;51.332;6.778;2022-12-18T07:33:35;-0.30;98.60
921;DHT22;447;51.332;6.778;2022-12-18T07:36:05;-0.30;98.60
921;DHT22;447;51.332;6.778;2022-12-18T07:38:34;-0.40;98.50
921;DHT22;447;51.332;6.778;2022-12-18T07:41:02;-0.40;98.50
921;DHT22;447;51.332;6.778;2022-12-18T07:43:28;-0.40;98.40
921;DHT22;447;51.332;6.778;2022-12-18T07:45:58;-0.40;98.50
921;DHT22;447;51.332;6.778;2022-12-18T07:48:27;-0.40;98.50
921;DHT22;447;51.332;6.778;2022-12-18T07:50:53;-0.40;98.50
921;DHT22;447;51.332;6.778;2022-12-18T07:53:19;-0.40;98.40
921;DHT22;447;51.332;6.778;2022-12-18T07:55:47;-0.40;98.40
921;DHT22;447;51.332;6.778;2022-12-18T07:58:13;-0.40;98.50
921;DHT22;447;51.332;6.778;2022-12-18T08:00:39;-0.40;98.40
921;DHT22;447;51.332;6.778;2022-12-18T08:03:10;-0.40;98.40
921;DHT22;447;51.332;6.778;2022-12-18T08:05:39;-0.40;98.30
921;DHT22;447;51.332;6.778;2022-12-18T08:08:07;-0.40;98.30
921;DHT22;447;51.332;6.778;2022-12-18T08:10:38;-0.40;98.30
921;DHT22;447;51.332;6.778;2022-12-18T08:13:14;-0.40;98.30
921;DHT22;447;51.332;6.778;2022-12-18T08:15:40;-0.40;98.30
921;DHT22;447;51.332;6.778;2022-12-18T08:18:11;-0.40;98.40
921;DHT22;447;51.332;6.778;2022-12-18T08:20:42;-0.40;98.30
921;DHT22;447;51.332;6.778;2022-12-18T08:23:10;-0.40;98.40
921;DHT22;447;51.332;6.778;2022-12-18T08:25:39;-0.40;98.30
921;DHT22;447;51.332;6.778;2022-12-18T08:28:06;-0.40;98.30
921;DHT22;447;51.332;6.778;2022-12-18T08:30:35;-0.40;98.30
921;DHT22;447;51.332;6.778;2022-12-18T08:33:01;-0.50;98.30
921;DHT22;447;51.332;6.778;2022-12-18T08:35:29;-0.40;98.30
921;DHT22;447;51.332;6.778;2022-12-18T08:37:55;-0.40;98.30
921;DHT22;447;51.332;6.778;2022-12-18T08:40:21;-0.40;98.30
921;DHT22;447;51.332;6.778;2022-12-18T08:42:47;-0.40;98.30
921;DHT22;447;51.332;6.778;2022-12-18T08:45:32;-0.40;98.30
921;DHT22;447;51.332;6.778;2022-12-18T08:47:59;-0.40;98.30
921;DHT22;447;51.332;6.778;2022-12-18T08:50:25;-0.40;98.30
921;DHT22;447;51.332;6.778;2022-12-18T08:52:53;-0.40;98.20
921;DHT22;447;51.332;6.778;2022-12-18T08:55:19;-0.40;98.20
921;DHT22;447;51.332;6.778;2022-12-18T08:57:48;-0.40;98.20
921;DHT22;447;51.332;6.778;2022-12-18T09:00:17;-0.40;98.30
921;DHT22;447;51.332;6.778;2022-12-18T09:02:45;-0.40;98.30
921;DHT22;447;51.332;6.778;2022-12-18T09:05:11;-0.40;98.30
921;DHT22;447;51.332;6.778;2022-12-18T09:07:37;-0.40;98.30
921;DHT22;447;51.332;6.778;2022-12-18T09:10:04;-0.40;98.30
921;DHT22;447;51.332;6.778;2022-12-18T09:12:30;-0.40;98.30
921;DHT22;447;51.332;6.778;2022-12-18T09:14:57;-0.40;98.30
921;DHT22;447;51.332;6.778;2022-12-18T09:17:23;-0.40;98.20
921;DHT22;447;51.332;6.778;2022-12-18T09:19:49;-0.40;98.30
921;DHT22;447;51.332;6.778;2022-12-18T09:22:17;-0.40;98.20
921;DHT22;447;51.332;6.778;2022-12-18T09:24:46;-0.30;98.30
921;DHT22;447;51.332;6.778;2022-12-18T09:27:12;-0.30;98.30
921;DHT22;447;51.332;6.778;2022-12-18T09:29:40;-0.30;98.30
921;DHT22;447;51.332;6.778;2022-12-18T09:32:11;-0.30;98.30
921;DHT22;447;51.332;6.778;2022-12-18T09:34:37;-0.30;98.30
921;DHT22;447;51.332;6.778;2022-12-18T09:37:05;-0.30;98.40
921;DHT22;447;51.332;6.778;2022-12-18T09:39:39;-0.30;98.40
921;DHT22;447;51.332;6.778;2022-12-18T09:42:20;-0.30;98.40
921;DHT22;447;51.332;6.778;2022-12-18T09:44:58;-0.30;98.40
921;DHT22;447;51.332;6.778;2022-12-18T09:47:36;-0.30;98.40
921;DHT22;447;51.332;6.778;2022-12-18T09:50:30;-0.30;98.50
921;DHT22;447;51.332;6.778;2022-12-18T09:53:09;-0.30;98.50
921;DHT22;447;51.332;6.778;2022-12-18T09:55:42;-0.30;98.40
921;DHT22;447;51.332;6.778;2022-12-18T09:58:15;-0.30;98.50
921;DHT22;447;51.332;6.778;2022-12-18T10:00:47;-0.30;98.50
921;DHT22;447;51.332;6.778;2022-12-18T10:03:15;-0.30;98.50
921;DHT22;447;51.332;6.778;2022-12-18T10:11:28;-0.30;98.50
921;DHT22;447;51.332;6.778;2022-12-18T10:14:09;-0.30;98.50
921;DHT22;447;51.332;6.778;2022-12-18T10:19:59;-0.20;98.60
921;DHT22;447;51.332;6.778;2022-12-18T10:27:26;-0.20;98.60
921;DHT22;447;51.332;6.778;2022-12-18T10:29:52;-0.20;98.60
921;DHT22;447;51.332;6.778;2022-12-18T10:32:28;-0.20;98.60
921;DHT22;447;51.332;6.778;2022-12-18T10:34:57;-0.20;98.60
921;DHT22;447;51.332;6.778;2022-12-18T10:37:29;-0.20;98.60
921;DHT22;447;51.332;6.778;2022-12-18T10:40:25;-0.20;98.60
921;DHT22;447;51.332;6.778;2022-12-18T10:43:12;-0.20;98.60
921;DHT22;447;51.332;6.778;2022-12-18T10:45:40;-0.20;98.70
921;DHT22;447;51.332;6.778;2022-12-18T10:48:24;-0.20;98.60
921;DHT22;447;51.332;6.778;2022-12-18T10:50:51;-0.10;98.60
921;DHT22;447;51.332;6.778;2022-12-18T10:53:24;-0.10;98.70
921;DHT22;447;51.332;6.778;2022-12-18T10:55:58;-0.10;98.80
921;DHT22;447;51.332;6.778;2022-12-18T10:58:31;0.00;98.60
921;DHT22;447;51.332;6.778;2022-12-18T11:03:46;-0.10;98.50
921;DHT22;447;51.332;6.778;2022-12-18T11:06:24;0.00;98.60
921;DHT22;447;51.332;6.778;2022-12-18T11:09:25;-0.10;98.60
921;DHT22;447;51.332;6.778;2022-12-18T11:11:54;-0.10;98.60
921;DHT22;447;51.332;6.778;2022-12-18T11:14:33;0.00;98.60
921;DHT22;447;51.332;6.778;2022-12-18T11:17:04;0.00;98.60
921;DHT22;447;51.332;6.778;2022-12-18T11:19:36;0.00;98.70
921;DHT22;447;51.332;6.778;2022-12-18T11:24:58;0.00;98.60
921;DHT22;447;51.332;6.778;2022-12-18T11:27:25;0.00;98.60
921;DHT22;447;51.332;6.778;2022-12-18T11:30:26;0.00;98.60
921;DHT22;447;51.332;6.778;2022-12-18T11:33:10;0.00;98.50
921;DHT22;447;51.332;6.778;2022-12-18T11:35:51;0.10;98.60
921;DHT22;447;51.332;6.778;2022-12-18T11:41:00;0.10;98.60
921;DHT22;447;51.332;6.778;2022-12-18T11:43:58;0.10;98.60
921;DHT22;447;51.332;6.778;2022-12-18T11:46:36;0.10;98.60
921;DHT22;447;51.332;6.778;2022-12-18T11:49:06;0.10;98.50
921;DHT22;447;51.332;6.778;2022-12-18T11:54:30;0.10;98.50
921;DHT22;447;51.332;6.778;2022-12-18T11:57:27;0.10;98.50
921;DHT22;447;51.332;6.778;2022-12-18T12:14:07;0.50;98.50
921;DHT22;447;51.332;6.778;2022-12-18T12:16:46;0.60;98.80
921;DHT22;447;51.332;6.778;2022-12-18T12:38:54;0.40;98.40
921;DHT22;447;51.332;6.778;2022-12-18T12:41:25;0.40;98.50
921;DHT22;447;51.332;6.778;2022-12-18T12:44:18;0.40;98.50
921;DHT22;447;51.332;6.778;2022-12-18T12:46:50;0.40;98.50
921;DHT22;447;51.332;6.778;2022-12-18T12:49:31;0.40;98.60
921;DHT22;447;51.332;6.778;2022-12-18T12:52:50;0.40;98.60
921;DHT22;447;51.332;6.778;2022-12-18T12:55:28;0.40;98.60
921;DHT22;447;51.332;6.778;2022-12-18T13:00:55;0.40;98.60
921;DHT22;447;51.332;6.778;2022-12-18T13:06:33;0.40;98.70
921;DHT22;447;51.332;6.778;2022-12-18T13:09:04;0.40;98.70
921;DHT22;447;51.332;6.778;2022-12-18T13:11:44;0.40;98.70
921;DHT22;447;51.332;6.778;2022-12-18T13:19:42;0.50;98.70
921;DHT22;447;51.332;6.778;2022-12-18T13:22:30;0.50;98.70
921;DHT22;447;51.332;6.778;2022-12-18T13:24:57;0.50;98.70
921;DHT22;447;51.332;6.778;2022-12-18T13:38:41;0.50;98.60
921;DHT22;447;51.332;6.778;2022-12-18T13:43:46;0.50;98.60
921;DHT22;447;51.332;6.778;2022-12-18T13:46:46;0.60;98.50
921;DHT22;447;51.332;6.778;2022-12-18T13:49:30;0.60;98.30
921;DHT22;447;51.332;6.778;2022-12-18T13:52:22;0.60;98.30
921;DHT22;447;51.332;6.778;2022-12-18T13:54:57;0.60;98.30
921;DHT22;447;51.332;6.778;2022-12-18T13:59:54;0.60;98.30
921;DHT22;447;51.332;6.778;2022-12-18T14:02:26;0.60;98.30
921;DHT22;447;51.332;6.778;2022-12-18T14:04:52;0.60;98.20
921;DHT22;447;51.332;6.778;2022-12-18T14:09:57;0.60;98.20
921;DHT22;447;51.332;6.778;2022-12-18T14:12:32;0.60;98.20
921;DHT22;447;51.332;6.778;2022-12-18T14:17:58;0.60;98.10
921;DHT22;447;51.332;6.778;2022-12-18T14:20:27;0.60;98.10
921;DHT22;447;51.332;6.778;2022-12-18T14:22:54;0.70;98.10
921;DHT22;447;51.332;6.778;2022-12-18T14:25:23;0.70;98.00
921;DHT22;447;51.332;6.778;2022-12-18T14:28:23;0.70;98.00
921;DHT22;447;51.332;6.778;2022-12-18T14:30:49;0.70;98.00
921;DHT22;447;51.332;6.778;2022-12-18T14:33:25;0.70;97.90
921;DHT22;447;51.332;6.778;2022-12-18T14:36:02;0.70;97.90
921;DHT22;447;51.332;6.778;2022-12-18T14:38:39;0.70;97.90
921;DHT22;447;51.332;6.778;2022-12-18T14:41:13;0.70;97.80
921;DHT22;447;51.332;6.778;2022-12-18T14:43:41;0.70;97.80
921;DHT22;447;51.332;6.778;2022-12-18T14:46:37;0.70;97.80
921;DHT22;447;51.332;6.778;2022-12-18T14:52:01;0.70;97.80
921;DHT22;447;51.332;6.778;2022-12-18T14:54:31;0.70;97.80
921;DHT22;447;51.332;6.778;2022-12-18T14:57:21;0.70;97.80
921;DHT22;447;51.332;6.778;2022-12-18T14:59:51;0.70;97.80
921;DHT22;447;51.332;6.778;2022-12-18T15:02:27;0.80;97.80
921;DHT22;447;51.332;6.778;2022-12-18T15:05:15;0.70;97.80
921;DHT22;447;51.332;6.778;2022-12-18T15:07:53;0.70;97.80
921;DHT22;447;51.332;6.778;2022-12-18T15:10:32;0.70;97.80
921;DHT22;447;51.332;6.778;2022-12-18T15:18:04;0.80;97.70
921;DHT22;447;51.332;6.778;2022-12-18T15:20:53;0.80;97.70
921;DHT22;447;51.332;6.778;2022-12-18T15:23:50;0.80;97.70
921;DHT22;447;51.332;6.778;2022-12-18T15:26:19;0.80;97.70
921;DHT22;447;51.332;6.778;2022-12-18T15:28:57;0.80;97.70
921;DHT22;447;51.332;6.778;2022-12-18T15:31:29;0.80;97.70
921;DHT22;447;51.332;6.778;2022-12-18T15:36:25;0.80;97.70
921;DHT22;447;51.332;6.778;2022-12-18T15:38:56;0.80;97.80
921;DHT22;447;51.332;6.778;2022-12-18T15:41:23;0.80;97.80
921;DHT22;447;51.332;6.778;2022-12-18T15:43:51;0.80;97.70
921;DHT22;447;51.332;6.778;2022-12-18T15:46:23;0.80;97.70
921;DHT22;447;51.332;6.778;2022-12-18T15:48:58;0.90;97.80
921;DHT22;447;51.332;6.778;2022-12-18T15:51:28;0.90;97.70
921;DHT22;447;51.332;6.778;2022-12-18T15:53:56;0.80;97.60
921;DHT22;447;51.332;6.778;2022-12-18T15:56:29;0.90;97.70
921;DHT22;447;51.332;6.778;2022-12-18T15:59:16;0.90;97.60
921;DHT22;447;51.332;6.778;2022-12-18T16:01:45;0.90;97.50
921;DHT22;447;51.332;6.778;2022-12-18T16:04:17;0.90;97.60
921;DHT22;447;51.332;6.778;2022-12-18T16:06:46;0.90;97.60
921;DHT22;447;51.332;6.778;2022-12-18T16:09:12;0.90;97.70
921;DHT22;447;51.332;6.778;2022-12-18T16:11:41;0.90;97.70
921;DHT22;447;51.332;6.778;2022-12-18T16:14:22;0.90;97.70
921;DHT22;447;51.332;6.778;2022-12-18T16:16:51;0.90;97.70
921;DHT22;447;51.332;6.778;2022-12-18T16:19:18;0.90;97.60
921;DHT22;447;51.332;6.778;2022-12-18T16:21:46;0.90;97.60
921;DHT22;447;51.332;6.778;2022-12-18T16:24:19;0.90;97.60
921;DHT22;447;51.332;6.778;2022-12-18T16:26:48;0.90;97.60
921;DHT22;447;51.332;6.778;2022-12-18T16:29:14;0.90;97.60
921;DHT22;447;51.332;6.778;2022-12-18T16:31:40;0.90;97.60
921;DHT22;447;51.332;6.778;2022-12-18T16:34:29;1.00;97.70
921;DHT22;447;51.332;6.778;2022-12-18T16:37:14;1.00;97.70
921;DHT22;447;51.332;6.778;2022-12-18T16:39:41;1.00;97.70
921;DHT22;447;51.332;6.778;2022-12-18T16:42:12;1.00;97.70
921;DHT22;447;51.332;6.778;2022-12-18T16:44:43;0.90;97.70
921;DHT22;447;51.332;6.778;2022-12-18T16:47:09;1.00;97.80
921;DHT22;447;51.332;6.778;2022-12-18T16:49:40;1.00;97.80
921;DHT22;447;51.332;6.778;2022-12-18T16:52:08;1.00;97.80
921;DHT22;447;51.332;6.778;2022-12-18T16:54:37;1.00;97.90
921;DHT22;447;51.332;6.778;2022-12-18T16:57:03;1.00;97.90
921;DHT22;447;51.332;6.778;2022-12-18T16:59:33;1.00;97.90
921;DHT22;447;51.332;6.778;2022-12-18T17:02:01;1.00;97.90
921;DHT22;447;51.332;6.778;2022-12-18T17:04:27;1.00;97.90
921;DHT22;447;51.332;6.778;2022-12-18T17:06:53;1.00;98.00
921;DHT22;447;51.332;6.778;2022-12-18T17:09:23;1.00;98.10
921;DHT22;447;51.332;6.778;2022-12-18T17:11:55;1.00;98.10
921;DHT22;447;51.332;6.778;2022-12-18T17:14:24;1.00;98.10
921;DHT22;447;51.332;6.778;2022-12-18T17:16:50;1.00;98.10
921;DHT22;447;51.332;6.778;2022-12-18T17:19:16;1.00;98.10
921;DHT22;447;51.332;6.778;2022-12-18T17:21:44;1.00;98.10
921;DHT22;447;51.332;6.778;2022-12-18T17:24:12;1.00;98.20
921;DHT22;447;51.332;6.778;2022-12-18T17:26:40;1.00;98.20
921;DHT22;447;51.332;6.778;2022-12-18T17:29:07;1.00;98.30
921;DHT22;447;51.332;6.778;2022-12-18T17:31:33;1.00;98.30
921;DHT22;447;51.332;6.778;2022-12-18T17:34:03;1.00;98.30
921;DHT22;447;51.332;6.778;2022-12-18T17:36:32;1.00;98.20
921;DHT22;447;51.332;6.778;2022-12-18T17:39:00;1.00;98.30
921;DHT22;447;51.332;6.778;2022-12-18T17:41:27;1.00;98.30
921;DHT22;447;51.332;6.778;2022-12-18T17:44:04;1.00;98.30
921;DHT22;447;51.332;6.778;2022-12-18T17:46:33;1.00;98.30
921;DHT22;447;51.332;6.778;2022-12-18T17:49:02;1.00;98.30
921;DHT22;447;51.332;6.778;2022-12-18T17:51:30;1.00;98.30
921;DHT22;447;51.332;6.778;2022-12-18T17:53:56;1.00;98.40
921;DHT22;447;51.332;6.778;2022-12-18T17:56:26;1.00;98.40
921;DHT22;447;51.332;6.778;2022-12-18T17:58:56;1.10;98.50
921;DHT22;447;51.332;6.778;2022-12-18T18:01:23;1.10;98.50
921;DHT22;447;51.332;6.778;2022-12-18T18:03:50;1.10;98.50
921;DHT22;447;51.332;6.778;2022-12-18T18:06:19;1.10;98.50
921;DHT22;447;51.332;6.778;2022-12-18T18:08:46;1.00;98.50
921;DHT22;447;51.332;6.778;2022-12-18T18:11:15;1.00;98.50
921;DHT22;447;51.332;6.778;2022-12-18T18:14:01;1.10;98.60
921;DHT22;447;51.332;6.778;2022-12-18T18:16:40;1.10;98.60
921;DHT22;447;51.332;6.778;2022-12-18T18:19:09;1.10;98.60
921;DHT22;447;51.332;6.778;2022-12-18T18:21:40;1.10;98.60
921;DHT22;447;51.332;6.778;2022-12-18T18:24:08;1.10;98.60
921;DHT22;447;51.332;6.778;2022-12-18T18:26:36;1.10;98.60
921;DHT22;447;51.332;6.778;2022-12-18T18:29:04;1.10;98.60
921;DHT22;447;51.332;6.778;2022-12-18T18:31:31;1.10;98.50
921;DHT22;447;51.332;6.778;2022-12-18T18:34:00;1.10;98.50
921;DHT22;447;51.332;6.778;2022-12-18T18:36:26;1.10;98.50
921;DHT22;447;51.332;6.778;2022-12-18T18:38:56;1.10;98.60
921;DHT22;447;51.332;6.778;2022-12-18T18:41:23;1.10;98.50
921;DHT22;447;51.332;6.778;2022-12-18T18:43:55;1.10;98.50
921;DHT22;447;51.332;6.778;2022-12-18T18:46:22;1.10;98.50
921;DHT22;447;51.332;6.778;2022-12-18T18:48:54;1.10;98.50
921;DHT22;447;51.332;6.778;2022-12-18T18:51:20;1.10;98.60
921;DHT22;447;51.332;6.778;2022-12-18T18:53:49;1.10;98.60
921;DHT22;447;51.332;6.778;2022-12-18T18:56:18;1.10;98.60
921;DHT22;447;51.332;6.778;2022-12-18T18:58:46;1.10;98.60
921;DHT22;447;51.332;6.778;2022-12-18T19:01:21;1.10;98.70
921;DHT22;447;51.332;6.778;2022-12-18T19:03:48;1.10;98.60
921;DHT22;447;51.332;6.778;2022-12-18T19:06:18;1.10;98.60
921;DHT22;447;51.332;6.778;2022-12-18T19:08:45;1.10;98.70
921;DHT22;447;51.332;6.778;2022-12-18T19:11:14;1.10;98.70
921;DHT22;447;51.332;6.778;2022-12-18T19:14:02;1.10;98.70
921;DHT22;447;51.332;6.778;2022-12-18T19:16:28;1.10;98.80
921;DHT22;447;51.332;6.778;2022-12-18T19:18:55;1.10;98.70
921;DHT22;447;51.332;6.778;2022-12-18T19:21:21;1.10;98.70